Time;durP1;ratioP1;P1;durP2;ratioP2;P2;SDS_P1;SDS_P2;PMS_P1;PMS_P2;Temp;Humidity;BMP_temperature;BMP_pressure;BME280_temperature;BME280_humidity;BME280_pressure;Samples;Min_cycle;Max_cycle;Signal;HPM_P1;HPM_P2
2023/02/07 10:12:42;;;;;;;17.47;16.27;;;8.60;70.60;;;;;;5169344;27;20637;-76
2023/02/07 10:15:26;;;;;;;18.13;16.83;;;9.80;68.70;;;;;;5148340;27;20466;-78
2023/02/07 10:18:16;;;;;;;16.93;15.83;;;9.90;67.80;;;;;;5148294;27;20573;-77
2023/02/07 10:20:50;;;;;;;17.73;16.30;;;9.40;67.10;;;;;;5148165;27;20444;-77
2023/02/07 10:23:30;;;;;;;15.67;14.67;;;9.10;67.80;;;;;;5148224;27;20448;-77
2023/02/07 10:26:10;;;;;;;18.67;17.17;;;9.30;66.50;;;;;;5148108;27;20440;-77
2023/02/07 10:29:10;;;;;;;19.13;17.63;;;9.40;68.90;;;;;;5148057;27;20969;-78
2023/02/07 10:31:43;;;;;;;17.80;16.33;;;9.40;67.70;;;;;;5114967;27;20503;-77
2023/02/07 10:34:14;;;;;;;19.37;18.07;;;9.70;68.40;;;;;;5148039;27;20447;-77
2023/02/07 10:36:45;;;;;;;19.43;17.90;;;9.70;67.80;;;;;;5147979;27;20583;-76
2023/02/07 10:39:18;;;;;;;18.23;16.50;;;9.30;67.60;;;;;;5148015;27;20451;-76
2023/02/07 10:41:45;;;;;;;18.27;16.97;;;8.90;67.90;;;;;;5147864;27;20455;-76
2023/02/07 10:44:14;;;;;;;17.53;16.40;;;8.70;69.00;;;;;;5147544;27;20448;-77
2023/02/07 10:46:44;;;;;;;19.50;17.80;;;8.30;70.10;;;;;;5147752;27;20444;-76
2023/02/07 10:49:19;;;;;;;17.57;16.40;;;8.50;70.90;;;;;;5147563;27;20474;-76
2023/02/07 10:51:46;;;;;;;18.30;17.00;;;8.70;71.30;;;;;;5147715;27;20551;-76
2023/02/07 10:54:15;;;;;;;17.30;16.10;;;8.60;69.80;;;;;;5147394;27;20861;-76
2023/02/07 10:56:44;;;;;;;17.67;16.50;;;8.50;70.80;;;;;;5147420;27;20702;-76
2023/02/07 10:59:35;;;;;;;19.13;17.83;;;8.50;70.60;;;;;;5147656;27;20919;-77
2023/02/07 11:02:23;;;;;;;20.27;19.03;;;8.40;70.60;;;;;;5148264;27;20445;-77
2023/02/07 11:04:50;;;;;;;18.10;16.80;;;8.70;70.10;;;;;;5148747;27;20452;-77
2023/02/07 11:07:17;;;;;;;18.30;17.03;;;8.90;69.20;;;;;;5147437;27;20468;-77
2023/02/07 11:09:44;;;;;;;18.37;17.13;;;8.90;68.20;;;;;;5147104;27;20455;-77
2023/02/07 11:12:15;;;;;;;18.87;17.47;;;9.20;68.20;;;;;;5138879;27;20465;-77
2023/02/07 11:15:01;;;;;;;18.53;17.30;;;9.80;67.20;;;;;;5133358;27;20449;-77
2023/02/07 11:17:29;;;;;;;17.23;16.13;;;10.20;64.70;;;;;;5133279;27;20445;-76
2023/02/07 11:19:56;;;;;;;18.37;17.07;;;10.10;63.60;;;;;;5133254;27;20559;-77
2023/02/07 11:22:25;;;;;;;18.57;17.17;;;10.20;63.70;;;;;;5132987;27;20453;-77
2023/02/07 11:24:59;;;;;;;18.53;17.20;;;10.20;62.90;;;;;;5133330;27;20449;-76
2023/02/07 11:27:26;;;;;;;19.07;17.70;;;9.70;64.80;;;;;;5133224;27;20534;-76
2023/02/07 11:29:55;;;;;;;18.33;16.83;;;9.50;66.30;;;;;;5133126;27;20448;-76
2023/02/07 11:32:23;;;;;;;17.97;16.77;;;9.70;66.20;;;;;;5133364;27;20452;-77
2023/02/07 11:34:55;;;;;;;19.40;17.90;;;10.10;64.50;;;;;;5138177;27;20449;-77
2023/02/07 11:37:25;;;;;;;17.17;16.17;;;10.30;63.60;;;;;;5146832;27;20521;-77
2023/02/07 11:39:54;;;;;;;19.43;17.93;;;11.20;63.60;;;;;;5142555;27;20474;-77
2023/02/07 11:42:23;;;;;;;18.00;16.50;;;11.20;60.00;;;;;;5135741;27;20804;-77
2023/02/07 11:44:51;;;;;;;17.30;16.20;;;10.90;59.90;;;;;;5133524;27;20453;-77
2023/02/07 11:47:21;;;;;;;17.47;16.37;;;10.60;59.70;;;;;;5132946;27;20449;-77
2023/02/07 11:49:51;;;;;;;18.80;17.53;;;10.40;58.40;;;;;;5132693;27;20448;-77
2023/02/07 11:52:19;;;;;;;17.90;16.70;;;11.10;59.40;;;;;;5132854;27;20797;-76
2023/02/07 11:54:52;;;;;;;16.30;15.30;;;12.00;56.50;;;;;;5132732;27;20452;-77
2023/02/07 11:57:20;;;;;;;18.33;17.23;;;11.30;55.20;;;;;;5133167;27;20799;-77
2023/02/07 11:59:53;;;;;;;15.90;14.83;;;11.90;55.80;;;;;;5132776;27;20923;-76
2023/02/07 12:02:23;;;;;;;16.10;14.80;;;12.10;54.70;;;;;;5132671;27;20536;-76
2023/02/07 12:04:53;;;;;;;17.60;16.60;;;11.90;53.80;;;;;;5132636;27;20441;-76
2023/02/07 12:07:24;;;;;;;18.87;17.33;;;12.60;53.50;;;;;;5132531;27;20493;-76
2023/02/07 12:09:54;;;;;;;16.70;15.73;;;12.70;53.10;;;;;;5132321;27;20966;-76
2023/02/07 12:12:28;;;;;;;16.13;15.23;;;13.20;51.40;;;;;;5132765;27;20813;-76
2023/02/07 12:14:59;;;;;;;17.20;16.00;;;13.10;51.10;;;;;;5132197;27;20613;-77
2023/02/07 12:17:32;;;;;;;17.53;16.43;;;13.10;50.70;;;;;;5132375;27;20456;-77
2023/02/07 12:20:08;;;;;;;18.40;17.30;;;13.00;50.90;;;;;;5132267;27;20445;-77
2023/02/07 12:22:41;;;;;;;16.87;15.70;;;13.00;51.20;;;;;;5132183;27;20459;-77
2023/02/07 12:25:17;;;;;;;18.13;17.07;;;13.70;49.00;;;;;;5131507;27;20501;-77
2023/02/07 12:27:47;;;;;;;17.20;16.20;;;14.50;48.40;;;;;;5131872;27;20861;-77
2023/02/07 12:30:20;;;;;;;18.83;17.50;;;14.90;48.20;;;;;;5131868;27;20456;-77
2023/02/07 12:32:53;;;;;;;17.43;16.43;;;14.80;47.50;;;;;;5131973;27;20456;-77
2023/02/07 12:35:26;;;;;;;17.03;15.93;;;14.80;46.60;;;;;;5132216;27;20886;-77
2023/02/07 12:37:59;;;;;;;17.43;16.43;;;15.20;46.70;;;;;;5131802;27;20441;-76
2023/02/07 12:40:32;;;;;;;18.13;16.90;;;13.70;46.90;;;;;;5131613;27;20806;-77
2023/02/07 12:43:03;;;;;;;16.57;15.47;;;13.20;47.90;;;;;;5131663;27;20456;-77
2023/02/07 12:45:54;;;;;;;18.60;17.40;;;12.90;47.70;;;;;;5131874;27;20452;-77
2023/02/07 12:48:29;;;;;;;17.20;16.10;;;12.80;48.90;;;;;;5132094;27;20441;-76
2023/02/07 12:51:15;;;;;;;17.13;16.03;;;12.00;49.40;;;;;;5131857;27;20485;-76
2023/02/07 12:54:03;;;;;;;17.97;16.53;;;12.80;50.00;;;;;;5131914;27;20711;-76
2023/02/07 12:56:42;;;;;;;17.90;16.67;;;13.70;48.50;;;;;;5131481;27;20445;-76
2023/02/07 12:59:17;;;;;;;17.30;16.30;;;13.20;48.00;;;;;;5131682;27;20449;-77
2023/02/07 13:01:49;;;;;;;15.50;14.70;;;12.30;48.40;;;;;;5133270;27;20447;-76
2023/02/07 13:04:54;;;;;;;15.63;14.73;;;10.80;50.20;;;;;;5133743;27;20449;-77
2023/02/07 13:07:36;;;;;;;16.77;15.67;;;11.40;52.00;;;;;;5128135;27;20994;-79
2023/02/07 13:10:12;;;;;;;16.87;15.97;;;13.10;50.30;;;;;;5136353;27;20433;-76
2023/02/07 13:12:46;;;;;;;16.07;15.10;;;12.60;48.50;;;;;;5136133;27;20487;-76
2023/02/07 13:15:20;;;;;;;18.73;17.53;;;11.30;50.40;;;;;;5135677;27;20456;-76
2023/02/07 13:17:54;;;;;;;16.87;15.67;;;11.10;51.60;;;;;;5132928;27;20448;-76
2023/02/07 13:20:50;;;;;;;16.73;15.43;;;10.10;52.80;;;;;;5136916;27;20452;-78
2023/02/07 13:23:22;;;;;;;17.27;15.87;;;10.30;53.80;;;;;;5136459;27;20445;-76
2023/02/07 13:25:53;;;;;;;16.50;15.47;;;9.80;54.30;;;;;;5134084;27;20478;-75
2023/02/07 13:28:25;;;;;;;16.67;15.40;;;8.60;56.90;;;;;;5131466;27;20470;-75
2023/02/07 13:30:53;;;;;;;15.17;14.20;;;8.10;58.10;;;;;;5131008;27;20481;-75
2023/02/07 13:33:29;;;;;;;15.93;14.73;;;7.40;59.10;;;;;;5131064;27;20441;-76
2023/02/07 13:36:00;;;;;;;16.20;15.10;;;6.90;61.20;;;;;;5130234;27;20555;-76
2023/02/07 13:38:40;;;;;;;18.10;16.80;;;6.50;63.60;;;;;;5130586;27;20456;-75
2023/02/07 13:41:16;;;;;;;17.07;15.77;;;6.20;65.60;;;;;;5130690;27;20801;-76
2023/02/07 13:43:53;;;;;;;16.13;14.83;;;6.00;66.80;;;;;;5130596;27;20466;-76
2023/02/07 13:46:36;;;;;;;15.43;14.33;;;5.90;68.10;;;;;;5130669;27;20455;-75
2023/02/07 13:49:11;;;;;;;15.53;14.53;;;5.90;69.60;;;;;;5130910;27;20449;-75
2023/02/07 13:51:46;;;;;;;13.93;12.87;;;5.90;69.80;;;;;;5130324;27;20484;-76
2023/02/07 13:54:25;;;;;;;15.40;14.20;;;6.00;70.50;;;;;;5130419;27;20676;-75
2023/02/07 13:59:42;;;;;;;15.30;14.30;;;5.90;69.40;;;;;;5130451;28;20428;-75
2023/02/07 14:02:17;;;;;;;15.87;14.67;;;5.80;71.60;;;;;;5130479;28;20445;-75
2023/02/07 14:04:49;;;;;;;14.97;14.07;;;5.70;70.70;;;;;;5130379;28;20452;-75
2023/02/07 14:07:24;;;;;;;16.73;15.10;;;5.80;71.70;;;;;;5130254;28;20542;-75
2023/02/07 14:09:55;;;;;;;16.10;14.90;;;5.80;72.10;;;;;;5130479;27;20452;-75
2023/02/07 14:12:25;;;;;;;17.33;16.10;;;5.80;71.80;;;;;;5130002;28;20531;-75
2023/02/07 14:14:53;;;;;;;17.30;16.10;;;5.80;72.20;;;;;;5130483;28;20445;-76
2023/02/07 14:17:55;;;;;;;17.23;15.83;;;5.70;72.20;;;;;;5130443;28;20453;-76
2023/02/07 14:20:47;;;;;;;16.43;15.10;;;5.70;71.50;;;;;;5130171;27;20853;-75
2023/02/07 14:23:18;;;;;;;16.60;15.30;;;5.50;71.80;;;;;;5125131;27;20462;-74
2023/02/07 14:25:47;;;;;;;16.90;15.20;;;5.40;72.80;;;;;;5130132;28;20444;-75
2023/02/07 14:28:21;;;;;;;15.00;14.10;;;5.30;71.80;;;;;;5130094;27;20464;-75
2023/02/07 14:31:00;;;;;;;14.70;13.60;;;5.30;71.00;;;;;;5130083;28;20460;-75
2023/02/07 14:33:34;;;;;;;14.63;13.73;;;5.20;71.90;;;;;;5130558;28;20866;-75
2023/02/07 14:36:20;;;;;;;14.30;13.20;;;5.10;71.90;;;;;;5130153;28;20543;-75
2023/02/07 14:39:02;;;;;;;14.70;13.60;;;5.20;73.00;;;;;;5122483;27;20812;-74
2023/02/07 14:41:32;;;;;;;14.10;13.10;;;5.10;72.70;;;;;;5130119;28;20969;-76
2023/02/07 14:44:01;;;;;;;15.27;14.07;;;5.20;72.30;;;;;;5130207;28;20729;-76
2023/02/07 14:46:33;;;;;;;13.93;13.03;;;5.10;72.80;;;;;;5130203;27;20444;-75
2023/02/07 14:49:02;;;;;;;14.63;13.50;;;5.10;72.40;;;;;;5133964;27;20464;-75
2023/02/07 14:51:40;;;;;;;15.40;14.20;;;5.10;73.10;;;;;;5133633;27;20479;-75
2023/02/07 14:54:13;;;;;;;13.23;12.23;;;5.10;73.60;;;;;;5133847;27;20456;-76
2023/02/07 14:56:51;;;;;;;14.13;13.13;;;5.10;72.10;;;;;;5133663;27;20452;-75
2023/02/07 14:59:27;;;;;;;14.50;13.50;;;5.00;73.60;;;;;;5133744;27;20456;-75
2023/02/07 15:01:54;;;;;;;13.37;12.57;;;5.10;72.50;;;;;;5133651;27;20494;-75
2023/02/07 15:04:21;;;;;;;15.00;13.90;;;5.00;71.30;;;;;;5133855;27;20453;-75
2023/02/07 15:06:47;;;;;;;13.90;12.90;;;4.90;71.20;;;;;;5133547;27;20462;-75
2023/02/07 15:09:22;;;;;;;14.00;13.00;;;4.90;71.90;;;;;;5133345;27;20927;-75
2023/02/07 15:11:51;;;;;;;14.57;13.47;;;4.90;72.70;;;;;;5147885;27;21073;-76
2023/02/07 15:14:23;;;;;;;13.70;12.77;;;4.90;72.20;;;;;;5139029;27;20974;-75
2023/02/07 15:16:50;;;;;;;14.97;13.57;;;4.90;72.00;;;;;;5137251;27;20445;-76
2023/02/07 15:19:23;;;;;;;15.30;14.00;;;4.90;72.10;;;;;;5133739;27;20459;-75
2023/02/07 15:21:50;;;;;;;13.20;12.40;;;4.90;72.80;;;;;;5133444;27;20795;-76
2023/02/07 15:24:23;;;;;;;14.43;13.60;;;4.90;73.00;;;;;;5133297;27;20444;-79
2023/02/07 15:26:56;;;;;;;13.90;13.10;;;4.90;73.30;;;;;;5133476;27;20452;-75
2023/02/07 15:29:29;;;;;;;13.73;12.90;;;4.80;71.90;;;;;;5133261;27;20862;-76
2023/02/07 15:31:55;;;;;;;13.20;12.40;;;4.80;72.10;;;;;;5132950;27;20537;-75
2023/02/07 15:34:30;;;;;;;13.00;12.20;;;4.80;72.80;;;;;;5133076;27;20967;-74
2023/02/07 15:36:58;;;;;;;12.80;11.90;;;4.80;73.20;;;;;;5132809;27;20552;-74
2023/02/07 15:39:28;;;;;;;13.90;12.67;;;4.80;72.30;;;;;;5132903;27;20488;-76
2023/02/07 15:41:58;;;;;;;12.50;11.80;;;4.70;72.10;;;;;;5132873;27;20808;-76
2023/02/07 15:44:26;;;;;;;14.27;13.27;;;4.70;72.40;;;;;;5132556;27;20771;-76
2023/02/07 15:46:54;;;;;;;12.93;12.10;;;4.70;71.40;;;;;;5132747;27;20962;-76
2023/02/07 15:49:33;;;;;;;12.17;11.53;;;4.60;71.90;;;;;;5132891;27;20452;-76
2023/02/07 15:52:15;;;;;;;12.80;11.70;;;4.60;71.80;;;;;;5132431;27;20487;-77
2023/02/07 15:54:45;;;;;;;13.63;12.73;;;4.60;72.70;;;;;;5132528;27;20484;-76
2023/02/07 15:57:21;;;;;;;13.30;12.30;;;4.50;73.00;;;;;;5132686;27;20448;-76
2023/02/07 15:59:49;;;;;;;12.43;11.73;;;4.50;74.00;;;;;;5132716;27;20925;-76
2023/02/07 16:02:23;;;;;;;12.73;11.83;;;4.40;74.30;;;;;;5132457;27;20541;-76
2023/02/07 16:04:50;;;;;;;14.80;13.50;;;4.20;76.10;;;;;;5132694;27;20540;-77
2023/02/07 16:07:17;;;;;;;13.53;12.53;;;4.20;76.90;;;;;;5132175;27;20472;-76
2023/02/07 16:09:45;;;;;;;12.97;12.07;;;4.10;78.30;;;;;;5132163;27;20984;-75
2023/02/07 16:12:41;;;;;;;10.33;9.77;;;4.00;77.70;;;;;;5131834;27;20911;-75
2023/02/07 16:15:24;;;;;;;13.23;12.27;;;3.90;77.50;;;;;;5132219;27;20954;-76
2023/02/07 16:17:51;;;;;;;13.67;12.73;;;3.90;77.40;;;;;;5132561;27;20444;-75
2023/02/07 16:20:18;;;;;;;13.30;12.40;;;3.80;78.70;;;;;;5132399;27;20814;-76
2023/02/07 16:22:46;;;;;;;14.00;12.57;;;3.70;79.70;;;;;;5131807;27;20453;-76
2023/02/07 16:25:17;;;;;;;12.87;12.07;;;3.60;81.10;;;;;;5131809;27;20444;-74
2023/02/07 16:27:47;;;;;;;13.50;12.50;;;3.50;82.00;;;;;;5131983;27;20448;-74
2023/02/07 16:30:16;;;;;;;13.50;12.13;;;3.50;82.20;;;;;;5131830;27;20459;-77
2023/02/07 16:32:43;;;;;;;13.90;12.80;;;3.30;84.10;;;;;;5131707;27;20481;-74
2023/02/07 16:35:21;;;;;;;14.07;12.80;;;3.20;84.80;;;;;;5131621;27;20951;-76
2023/02/07 16:37:48;;;;;;;13.67;12.60;;;3.10;86.70;;;;;;5132032;27;20452;-75
2023/02/07 16:40:16;;;;;;;13.87;12.77;;;3.00;87.50;;;;;;5131496;27;20567;-75
2023/02/07 16:42:45;;;;;;;12.50;11.50;;;2.90;88.70;;;;;;5131390;27;20449;-75
2023/02/07 16:45:18;;;;;;;14.77;13.67;;;2.80;89.40;;;;;;5131370;27;20538;-75
2023/02/07 16:47:45;;;;;;;13.77;12.77;;;2.80;89.80;;;;;;5131392;27;20453;-74
2023/02/07 16:50:17;;;;;;;13.40;12.40;;;2.80;89.20;;;;;;5131400;27;20789;-74
2023/02/07 16:52:44;;;;;;;13.83;12.83;;;2.70;89.50;;;;;;5131549;27;20483;-74
2023/02/07 16:55:11;;;;;;;13.43;12.43;;;2.70;90.20;;;;;;5131554;27;20456;-76
2023/02/07 16:57:38;;;;;;;14.37;13.00;;;2.60;90.10;;;;;;5131625;27;20460;-75
2023/02/07 17:00:08;;;;;;;12.87;11.73;;;2.60;90.10;;;;;;5131682;27;20864;-75
2023/02/07 17:02:35;;;;;;;13.90;12.80;;;2.50;90.20;;;;;;5131472;27;20448;-75
2023/02/07 17:05:04;;;;;;;14.30;13.00;;;2.50;90.50;;;;;;5131197;27;20449;-75
2023/02/07 17:07:31;;;;;;;13.33;12.40;;;2.40;90.60;;;;;;5130835;27;20479;-75
2023/02/07 17:09:58;;;;;;;13.70;12.80;;;2.40;90.70;;;;;;5130754;27;20475;-75
2023/02/07 17:12:25;;;;;;;13.07;11.97;;;2.30;91.20;;;;;;5130845;27;20488;-75
2023/02/07 17:14:53;;;;;;;20.33;13.03;;;2.20;91.70;;;;;;5131143;27;20494;-74
2023/02/07 17:17:22;;;;;;;13.97;12.77;;;2.20;91.50;;;;;;5131173;27;20445;-75
2023/02/07 17:19:50;;;;;;;12.97;11.80;;;2.10;91.70;;;;;;5131186;27;20436;-74
2023/02/07 17:22:16;;;;;;;12.70;11.80;;;2.10;91.60;;;;;;5130638;27;20445;-75
2023/02/07 17:24:43;;;;;;;13.77;12.77;;;2.10;92.10;;;;;;5130591;27;20449;-75
2023/02/07 17:27:11;;;;;;;13.77;12.63;;;2.00;91.90;;;;;;5130580;27;20449;-75
2023/02/07 17:29:37;;;;;;;13.97;12.87;;;2.00;91.90;;;;;;5130997;27;20458;-76
2023/02/07 17:32:08;;;;;;;13.50;12.20;;;2.00;92.00;;;;;;5130796;27;20480;-75
2023/02/07 17:34:36;;;;;;;13.50;12.50;;;1.90;92.10;;;;;;5130926;27;20490;-74
2023/02/07 17:37:03;;;;;;;14.10;12.80;;;1.90;91.90;;;;;;5130625;27;20449;-75
2023/02/07 17:39:30;;;;;;;12.70;11.80;;;1.80;92.20;;;;;;5130555;27;20441;-74
2023/02/07 17:41:56;;;;;;;14.37;13.17;;;1.70;92.40;;;;;;5130422;27;20460;-76
2023/02/07 17:44:24;;;;;;;14.10;13.00;;;1.70;92.60;;;;;;5130491;27;20440;-76
2023/02/07 17:46:53;;;;;;;12.50;11.63;;;1.60;92.70;;;;;;5130729;27;20449;-76
2023/02/07 17:49:20;;;;;;;12.53;11.63;;;1.60;93.20;;;;;;5130909;27;20452;-76
2023/02/07 17:51:48;;;;;;;13.87;12.77;;;1.60;93.10;;;;;;5130240;27;20943;-76
2023/02/07 17:54:14;;;;;;;13.87;12.97;;;1.50;93.60;;;;;;5130332;27;20449;-76
2023/02/07 17:56:41;;;;;;;14.83;13.60;;;1.50;93.60;;;;;;5130357;27;20475;-76
